^^
Meteo Knjazevac Station Historical Data
Daily Summary for February 23, 2021 Units:  Both    English   Metric
Daily Weekly Monthly Yearly Custom
  High: Low: Average:
Temperature: 50.7 °F /  10.4 °C 48.7 °F /  9.3 °C 49.9 °F /  9.9 °C
Dew Point: 42.4 °F /  5.8 °C 40.5 °F /  4.7 °C 41.3 °F /  5.2 °C
Humidity: 74% 70% 72%
Wind Speed: 9mph /  14.5km/h - 6mph /  9.7km/h
Wind Gust: 22mph /  35.4km/h - -
Wind- - SSE
Pressure: 29.96 in /  1014.4 hPa 29.88 in /  1011.7 hPa -
Precipitation: 0.00 in /  0 mm    
Historical Graphs
 
 
Tabular Data for February 23, 2021
Time Temperature Dew Point Pressure Wind Wind Speed Wind Gust Humidity Rainfall Rate (Hourly) solar Conditions
00:00 50.4 °F /  10.2 °C 41 °F /  5 °C 29.96in /  1014.4hPa SSE 6mph /  9.7km/h 12mph /  19.3km/h 70% 0.00in /  0mm 0 W/m2
00:10 50.3 °F /  10.2 °C 41.6 °F /  5.3 °C 29.96in /  1014.4hPa SSE 7mph /  11.3km/h 13mph /  20.9km/h 72% 0.00in /  0mm 0 W/m2
00:20 50.5 °F /  10.3 °C 41.1 °F /  5.1 °C 29.96in /  1014.4hPa SSE 7mph /  11.3km/h 17mph /  27.4km/h 70% 0.00in /  0mm 0 W/m2
00:30 50.7 °F /  10.4 °C 41.3 °F /  5.2 °C 29.95in /  1014.1hPa SSE 5mph /  8km/h 19mph /  30.6km/h 70% 0.00in /  0mm 0 W/m2
00:40 50.7 °F /  10.4 °C 41.3 °F /  5.2 °C 29.95in /  1014.1hPa SSE 5mph /  8km/h 11mph /  17.7km/h 70% 0.00in /  0mm 0 W/m2
00:50 50.4 °F /  10.2 °C 40.9 °F /  4.9 °C 29.95in /  1014.1hPa SSE 3mph /  4.8km/h 12mph /  19.3km/h 70% 0.00in /  0mm 0 W/m2
01:00 50 °F /  10 °C 41.3 °F /  5.2 °C 29.95in /  1014.1hPa SSE 2mph /  3.2km/h 10mph /  16.1km/h 72% 0.00in /  0mm 0 W/m2
01:10 49.6 °F /  9.8 °C 41 °F /  5 °C 29.94in /  1013.8hPa South 5mph /  8km/h 10mph /  16.1km/h 72% 0.00in /  0mm 0 W/m2
01:20 49.3 °F /  9.6 °C 40.7 °F /  4.8 °C 29.94in /  1013.8hPa SSW 2mph /  3.2km/h 6mph /  9.7km/h 72% 0.00in /  0mm 0 W/m2
01:30 48.9 °F /  9.4 °C 40.6 °F /  4.8 °C 29.94in /  1013.8hPa South 5mph /  8km/h 8mph /  12.9km/h 73% 0.00in /  0mm 0 W/m2
01:40 48.7 °F /  9.3 °C 40.5 °F /  4.7 °C 29.94in /  1013.8hPa SSE 5mph /  8km/h 10mph /  16.1km/h 73% 0.00in /  0mm 0 W/m2
01:50 48.7 °F /  9.3 °C 40.5 °F /  4.7 °C 29.94in /  1013.8hPa SSE 5mph /  8km/h 12mph /  19.3km/h 73% 0.00in /  0mm 0 W/m2
02:00 49.1 °F /  9.5 °C 40.8 °F /  4.9 °C 29.94in /  1013.8hPa SSE 3mph /  4.8km/h 12mph /  19.3km/h 73% 0.00in /  0mm 0 W/m2
02:10 49.3 °F /  9.6 °C 41 °F /  5 °C 29.94in /  1013.8hPa SSE 3mph /  4.8km/h 11mph /  17.7km/h 73% 0.00in /  0mm 0 W/m2
02:20 49.5 °F /  9.7 °C 40.8 °F /  4.9 °C 29.93in /  1013.4hPa SE 5mph /  8km/h 12mph /  19.3km/h 72% 0.00in /  0mm 0 W/m2
02:30 49.8 °F /  9.9 °C 41.2 °F /  5.1 °C 29.93in /  1013.4hPa SSE 5mph /  8km/h 12mph /  19.3km/h 72% 0.00in /  0mm 0 W/m2
02:40 50 °F /  10 °C 41.3 °F /  5.2 °C 29.93in /  1013.4hPa SSE 5mph /  8km/h 14mph /  22.5km/h 72% 0.00in /  0mm 0 W/m2
02:50 50.3 °F /  10.2 °C 41.7 °F /  5.4 °C 29.92in /  1013.1hPa SSE 9mph /  14.5km/h 16mph /  25.7km/h 72% 0.00in /  0mm 0 W/m2
03:00 50.4 °F /  10.2 °C 41.7 °F /  5.4 °C 29.92in /  1013.1hPa SSE 7mph /  11.3km/h 15mph /  24.1km/h 72% 0.00in /  0mm 0 W/m2
03:10 50.4 °F /  10.2 °C 41.7 °F /  5.4 °C 29.91in /  1012.8hPa SSE 5mph /  8km/h 13mph /  20.9km/h 72% 0.00in /  0mm 0 W/m2
03:20 50.4 °F /  10.2 °C 41.7 °F /  5.4 °C 29.91in /  1012.8hPa SSE 8mph /  12.9km/h 15mph /  24.1km/h 72% 0.00in /  0mm 0 W/m2
03:30 50.5 °F /  10.3 °C 41.8 °F /  5.4 °C 29.92in /  1013.1hPa SSE 8mph /  12.9km/h 17mph /  27.4km/h 72% 0.00in /  0mm 0 W/m2
03:40 50.7 °F /  10.4 °C 41.3 °F /  5.2 °C 29.91in /  1012.8hPa SSE 9mph /  14.5km/h 21mph /  33.8km/h 70% 0.00in /  0mm 0 W/m2
03:50 50.7 °F /  10.4 °C 41.3 °F /  5.2 °C 29.92in /  1013.1hPa SSE 7mph /  11.3km/h 20mph /  32.2km/h 70% 0.00in /  0mm 0 W/m2
04:00 50.4 °F /  10.2 °C 41.7 °F /  5.4 °C 29.92in /  1013.1hPa SSE 8mph /  12.9km/h 15mph /  24.1km/h 72% 0.00in /  0mm 0 W/m2
04:10 50.2 °F /  10.1 °C 41.5 °F /  5.3 °C 29.92in /  1013.1hPa South 7mph /  11.3km/h 15mph /  24.1km/h 72% 0.00in /  0mm 0 W/m2
04:20 49.8 °F /  9.9 °C 41.5 °F /  5.3 °C 29.92in /  1013.1hPa South 3mph /  4.8km/h 14mph /  22.5km/h 73% 0.00in /  0mm 0 W/m2
04:30 49.6 °F /  9.8 °C 41.3 °F /  5.2 °C 29.92in /  1013.1hPa South 5mph /  8km/h 13mph /  20.9km/h 73% 0.00in /  0mm 0 W/m2
04:40 49.5 °F /  9.7 °C 41.2 °F /  5.1 °C 29.92in /  1013.1hPa SSE 3mph /  4.8km/h 12mph /  19.3km/h 73% 0.00in /  0mm 0 W/m2
04:50 49.3 °F /  9.6 °C 41.3 °F /  5.2 °C 29.91in /  1012.8hPa South 5mph /  8km/h 10mph /  16.1km/h 74% 0.00in /  0mm 0 W/m2
05:00 49.5 °F /  9.7 °C 41.5 °F /  5.3 °C 29.91in /  1012.8hPa SSE 6mph /  9.7km/h 13mph /  20.9km/h 74% 0.00in /  0mm 0 W/m2
05:10 49.6 °F /  9.8 °C 41.3 °F /  5.2 °C 29.91in /  1012.8hPa SSE 6mph /  9.7km/h 15mph /  24.1km/h 73% 0.00in /  0mm 0 W/m2
05:20 49.6 °F /  9.8 °C 41.3 °F /  5.2 °C 29.91in /  1012.8hPa SSE 5mph /  8km/h 14mph /  22.5km/h 73% 0.00in /  0mm 0 W/m2
05:30 49.5 °F /  9.7 °C 41.5 °F /  5.3 °C 29.90in /  1012.4hPa SSE 6mph /  9.7km/h 12mph /  19.3km/h 74% 0.00in /  0mm 0 W/m2
05:40 49.5 °F /  9.7 °C 41.5 °F /  5.3 °C 29.89in /  1012.1hPa SSE 6mph /  9.7km/h 18mph /  29km/h 74% 0.00in /  0mm 0 W/m2
05:50 49.5 °F /  9.7 °C 41.5 °F /  5.3 °C 29.90in /  1012.4hPa SSE 6mph /  9.7km/h 13mph /  20.9km/h 74% 0.00in /  0mm 0 W/m2
06:00 49.5 °F /  9.7 °C 41.2 °F /  5.1 °C 29.89in /  1012.1hPa South 7mph /  11.3km/h 17mph /  27.4km/h 73% 0.00in /  0mm 0 W/m2
06:10 49.5 °F /  9.7 °C 41.2 °F /  5.1 °C 29.88in /  1011.7hPa SSE 5mph /  8km/h 17mph /  27.4km/h 73% 0.00in /  0mm 0 W/m2
06:20 49.5 °F /  9.7 °C 41.2 °F /  5.1 °C 29.88in /  1011.7hPa SSE 8mph /  12.9km/h 22mph /  35.4km/h 73% 0.00in /  0mm 0 W/m2
06:30 49.5 °F /  9.7 °C 41.2 °F /  5.1 °C 29.88in /  1011.7hPa SSE 8mph /  12.9km/h 22mph /  35.4km/h 73% 0.00in /  0mm 0 W/m2
06:40 49.5 °F /  9.7 °C 41.2 °F /  5.1 °C 29.88in /  1011.7hPa SSE 7mph /  11.3km/h 16mph /  25.7km/h 73% 0.00in /  0mm 0 W/m2
06:50 49.5 °F /  9.7 °C 41.2 °F /  5.1 °C 29.88in /  1011.7hPa SSE 9mph /  14.5km/h 16mph /  25.7km/h 73% 0.00in /  0mm 0 W/m2
07:00 49.6 °F /  9.8 °C 41.3 °F /  5.2 °C 29.88in /  1011.7hPa SE 8mph /  12.9km/h 17mph /  27.4km/h 73% 0.00in /  0mm 2 W/m2
07:10 49.8 °F /  9.9 °C 41.5 °F /  5.3 °C 29.88in /  1011.7hPa SE 6mph /  9.7km/h 19mph /  30.6km/h 73% 0.00in /  0mm 4 W/m2
07:20 49.8 °F /  9.9 °C 41.5 °F /  5.3 °C 29.88in /  1011.7hPa SE 7mph /  11.3km/h 17mph /  27.4km/h 73% 0.00in /  0mm 12 W/m2
07:30 50 °F /  10 °C 41.7 °F /  5.4 °C 29.88in /  1011.7hPa SE 8mph /  12.9km/h 15mph /  24.1km/h 73% 0.00in /  0mm 19 W/m2
07:50 50.2 °F /  10.1 °C 41.9 °F /  5.5 °C 29.88in /  1011.7hPa SSE 8mph /  12.9km/h 17mph /  27.4km/h 73% 0.00in /  0mm 40 W/m2
08:00 50.4 °F /  10.2 °C 42 °F /  5.6 °C 29.88in /  1011.7hPa SSE 8mph /  12.9km/h 17mph /  27.4km/h 73% 0.00in /  0mm 54 W/m2
08:10 50.5 °F /  10.3 °C 42.2 °F /  5.7 °C 29.88in /  1011.7hPa SSE 9mph /  14.5km/h 20mph /  32.2km/h 73% 0.00in /  0mm 67 W/m2
08:20 50.7 °F /  10.4 °C 42.4 °F /  5.8 °C 29.88in /  1011.7hPa SSE 6mph /  9.7km/h 19mph /  30.6km/h 73% 0.00in /  0mm 83 W/m2
Knjazevac, Serbia
Compliments of Weather Underground - 2 mb